Time;durP1;ratioP1;P1;durP2;ratioP2;P2;SDS_P1;SDS_P2;PMS_P1;PMS_P2;Temp;Humidity;BMP_temperature;BMP_pressure;BME280_temperature;BME280_humidity;BME280_pressure;Samples;Min_cycle;Max_cycle;Signal;HPM_P1;HPM_P2
2021/03/15 00:01:09;;;;;;;15.30;5.70;;;;;;;9.26;67.71;101054.09;5054414;28;20087;-84
2021/03/15 00:03:38;;;;;;;15.90;6.43;;;;;;;9.26;68.02;101052.34;5058777;28;20032;-84
2021/03/15 00:06:05;;;;;;;11.80;6.13;;;;;;;9.25;68.35;101047.94;5057428;28;20029;-84
2021/03/15 00:08:33;;;;;;;15.10;6.95;;;;;;;9.29;68.25;101049.63;5058262;28;20040;-84
2021/03/15 00:11:01;;;;;;;15.02;6.47;;;;;;;9.28;67.85;101062.88;5059006;28;20025;-84
2021/03/15 00:13:28;;;;;;;16.65;6.60;;;;;;;9.32;68.26;101048.72;5055898;28;20039;-84
2021/03/15 00:15:57;;;;;;;16.58;7.25;;;;;;;9.38;68.13;101053.94;5062045;28;20079;-84
2021/03/15 00:18:24;;;;;;;16.17;7.07;;;;;;;9.39;68.11;101051.31;5060403;28;20029;-84
2021/03/15 00:20:51;;;;;;;16.90;8.25;;;;;;;9.44;68.11;101056.53;5055474;28;20072;-84
2021/03/15 00:23:18;;;;;;;19.15;7.97;;;;;;;9.44;68.26;101045.09;5058054;28;20025;-84
2021/03/15 00:25:45;;;;;;;20.30;8.02;;;;;;;9.49;67.83;101045.91;5057377;28;20029;-84
2021/03/15 00:28:11;;;;;;;19.85;9.95;;;;;;;9.46;67.94;101045.91;5059082;28;20031;-84
2021/03/15 00:30:38;;;;;;;14.30;8.45;;;;;;;9.48;67.97;101038.84;5053936;28;20041;-84
2021/03/15 00:33:05;;;;;;;21.08;8.98;;;;;;;9.45;68.00;101038.91;5059483;28;20029;-84
2021/03/15 00:35:31;;;;;;;15.32;8.93;;;;;;;9.48;67.99;101036.22;5059711;28;20017;-85
2021/03/15 00:37:58;;;;;;;20.08;9.30;;;;;;;9.50;67.68;101047.66;5061643;28;20017;-85
2021/03/15 00:40:25;;;;;;;15.60;9.52;;;;;;;9.53;67.71;101043.19;5058629;28;20108;-84
2021/03/15 00:42:53;;;;;;;17.05;9.50;;;;;;;9.55;68.12;101036.09;5045465;28;20044;-84
2021/03/15 00:45:23;;;;;;;15.73;8.63;;;;;;;9.54;68.08;101047.59;5045124;28;20029;-84
2021/03/15 00:47:50;;;;;;;22.15;8.60;;;;;;;9.45;68.30;101038.91;5047139;28;20448;-85
2021/03/15 00:53:19;;;;;;;23.33;9.90;;;;;;;9.54;67.89;101039.66;5070269;28;20361;-82
2021/03/15 00:55:46;;;;;;;18.02;7.35;;;;;;;9.55;68.11;101029.94;5061794;28;20194;-85
2021/03/15 00:58:12;;;;;;;15.90;7.78;;;;;;;9.52;67.92;101037.91;5055425;28;20408;-84
2021/03/15 01:00:41;;;;;;;25.50;8.23;;;;;;;9.46;68.70;101036.22;5056460;28;20064;-85
2021/03/15 01:03:08;;;;;;;22.45;8.43;;;;;;;9.53;68.09;101037.03;5060465;28;20059;-84
2021/03/15 01:05:40;;;;;;;15.23;6.93;;;;;;;9.45;69.11;101041.56;5043855;28;20032;-85
2021/03/15 01:08:08;;;;;;;16.95;6.30;;;;;;;9.43;68.74;101041.53;5060926;28;20127;-85
2021/03/15 01:10:37;;;;;;;13.82;6.43;;;;;;;9.36;68.72;101039.88;5058504;28;20411;-85
2021/03/15 01:13:04;;;;;;;10.75;5.55;;;;;;;9.43;68.76;101043.31;5062686;28;20035;-87
2021/03/15 01:15:30;;;;;;;12.45;5.72;;;;;;;9.37;68.93;101038.97;5059477;28;20388;-87
2021/03/15 01:17:58;;;;;;;13.38;6.18;;;;;;;9.33;69.31;101035.50;5057301;28;20464;-86
2021/03/15 01:20:25;;;;;;;11.00;5.45;;;;;;;9.32;68.83;101044.34;5057877;28;20059;-86
2021/03/15 01:22:52;;;;;;;16.80;5.95;;;;;;;9.18;69.97;101048.88;5062554;28;20409;-87
2021/03/15 01:25:27;;;;;;;11.25;5.05;;;;;;;9.28;69.43;101047.88;5052256;28;20026;-87
2021/03/15 01:27:54;;;;;;;16.10;6.75;;;;;;;9.14;69.77;101049.81;5061121;28;20075;-86
2021/03/15 01:30:24;;;;;;;16.65;5.38;;;;;;;9.20;69.99;101062.97;5052867;28;20025;-86
2021/03/15 01:32:50;;;;;;;16.38;5.18;;;;;;;9.26;69.46;101049.69;5060746;28;20422;-86
2021/03/15 01:35:16;;;;;;;20.35;5.75;;;;;;;9.17;69.36;101058.59;5050592;28;20028;-86
2021/03/15 01:37:46;;;;;;;14.77;5.05;;;;;;;9.27;69.45;101067.31;5050650;28;20099;-85
2021/03/15 01:40:14;;;;;;;12.73;3.45;;;;;;;9.09;69.95;101071.00;5057743;28;20037;-87
2021/03/15 01:42:41;;;;;;;7.28;2.50;;;;;;;9.09;70.03;101062.22;5049015;28;20135;-87
2021/03/15 01:45:08;;;;;;;6.45;3.35;;;;;;;9.12;69.72;101067.47;5057040;28;20495;-87
2021/03/15 01:47:35;;;;;;;4.07;2.05;;;;;;;9.10;69.32;101067.47;5045996;28;20137;-86
2021/03/15 01:50:04;;;;;;;7.25;1.83;;;;;;;9.14;69.27;101065.69;5052614;28;20028;-87
2021/03/15 01:52:30;;;;;;;7.15;1.65;;;;;;;9.10;69.15;101069.22;5060973;28;20043;-87
2021/03/15 01:54:57;;;;;;;4.82;1.90;;;;;;;9.00;69.74;101066.69;5061546;28;20032;-86
2021/03/15 01:57:24;;;;;;;9.40;2.25;;;;;;;8.83;70.32;101071.25;5057543;28;20025;-86
2021/03/15 01:59:50;;;;;;;6.65;2.13;;;;;;;8.87;69.78;101067.69;5048500;28;20040;-85
2021/03/15 02:02:18;;;;;;;8.80;2.88;;;;;;;8.71;70.85;101075.78;5056053;28;20029;-84
2021/03/15 02:04:44;;;;;;;6.68;2.33;;;;;;;8.80;70.54;101076.56;5045391;28;20443;-84
2021/03/15 02:07:11;;;;;;;11.98;3.10;;;;;;;8.85;70.17;101073.00;5046348;28;20025;-84
2021/03/15 02:09:38;;;;;;;9.43;3.88;;;;;;;8.87;70.10;101071.22;5043032;28;20032;-84
2021/03/15 02:18:23;;;;;;;10.93;4.47;;;;;;;8.98;69.46;101063.19;5076921;28;20448;-84
2021/03/15 02:21:19;;;;;;;11.65;4.93;;;;;;;9.05;69.14;101067.53;5065359;28;20061;-85
2021/03/15 02:27:18;;;;;;;10.45;5.10;;;;;;;8.92;69.40;101078.22;5068376;27;20420;-83
2021/03/15 02:30:24;;;;;;;14.98;6.50;;;;;;;9.00;69.41;101071.13;5066622;28;20036;-83
2021/03/15 02:33:30;;;;;;;17.65;5.97;;;;;;;8.93;69.51;101077.34;5067078;28;20076;-85
2021/03/15 02:36:01;;;;;;;13.45;5.53;;;;;;;8.88;68.70;101080.03;5045362;28;20061;-84
2021/03/15 02:38:34;;;;;;;11.32;5.18;;;;;;;8.86;69.00;101097.66;5047411;28;20029;-85
2021/03/15 02:41:01;;;;;;;;;;;;;;;8.98;68.74;101097.53;5046152;28;20163;-85
2021/03/15 02:43:31;;;;;;;17.08;6.28;;;;;;;8.74;69.67;101104.78;5047150;28;19974;-85
2021/03/15 02:46:03;;;;;;;19.77;5.47;;;;;;;8.79;70.20;101117.97;5046985;28;20033;-85
2021/03/15 02:48:34;;;;;;;20.45;5.53;;;;;;;8.69;70.34;101103.97;5045875;28;20048;-85
2021/03/15 02:51:03;;;;;;;15.23;4.90;;;;;;;8.77;69.56;101103.03;5045627;28;20115;-85
2021/03/15 02:53:32;;;;;;;13.95;4.72;;;;;;;8.90;69.42;101107.31;5046653;28;20026;-85
2021/03/15 02:56:07;;;;;;;19.58;5.38;;;;;;;8.81;69.59;101105.63;5044122;28;20156;-85
2021/03/15 02:58:36;;;;;;;17.05;4.82;;;;;;;8.93;69.14;101117.00;5045873;28;20029;-84
2021/03/15 03:01:04;;;;;;;13.23;4.45;;;;;;;8.98;69.57;101113.41;5049301;28;20083;-84
2021/03/15 03:03:43;;;;;;;13.55;5.50;;;;;;;8.97;69.14;101116.97;5046371;28;20030;-84
2021/03/15 03:06:22;;;;;;;13.30;3.88;;;;;;;8.93;68.81;101125.78;5046508;28;20069;-84
2021/03/15 03:08:56;;;;;;;15.63;4.70;;;;;;;8.97;68.77;101127.53;5046321;28;20029;-84
2021/03/15 03:11:25;;;;;;;14.57;5.70;;;;;;;8.92;69.33;101124.03;5042414;28;20021;-84
2021/03/15 03:13:52;;;;;;;17.83;4.10;;;;;;;8.83;69.92;101130.25;5047706;28;20044;-85
2021/03/15 03:16:21;;;;;;;14.00;4.25;;;;;;;8.89;69.36;101130.22;5046329;28;20021;-85
2021/03/15 03:18:51;;;;;;;18.10;4.32;;;;;;;8.93;69.51;101131.06;5046319;28;20037;-85
2021/03/15 03:21:21;;;;;;;17.83;5.50;;;;;;;8.92;69.37;101134.59;5043612;28;20071;-85
2021/03/15 03:23:50;;;;;;;19.67;5.75;;;;;;;8.92;69.10;101134.59;5045957;28;20035;-85
2021/03/15 03:26:21;;;;;;;17.75;4.43;;;;;;;8.84;69.63;101136.44;5045912;28;20029;-84
2021/03/15 03:28:49;;;;;;;17.17;5.10;;;;;;;8.88;69.54;101130.22;5046066;28;20117;-85
2021/03/15 03:31:17;;;;;;;14.25;5.07;;;;;;;8.87;69.39;101128.47;5046569;28;20469;-85
2021/03/15 03:33:44;;;;;;;15.13;5.07;;;;;;;8.82;69.19;101143.50;5049239;28;20029;-84
2021/03/15 03:36:11;;;;;;;18.42;5.68;;;;;;;8.83;69.12;101139.97;5042556;28;20488;-84
2021/03/15 03:38:39;;;;;;;14.57;5.00;;;;;;;8.85;68.83;101144.34;5032175;28;20025;-84
2021/03/15 03:41:06;;;;;;;9.55;4.65;;;;;;;8.93;68.61;101144.28;5031646;28;20105;-85
2021/03/15 03:43:32;;;;;;;19.10;5.15;;;;;;;8.92;68.75;101142.53;5034799;28;20025;-85
2021/03/15 03:45:59;;;;;;;17.05;4.97;;;;;;;8.88;69.15;101148.72;5033528;28;20035;-85
2021/03/15 03:48:26;;;;;;;16.33;5.57;;;;;;;8.81;69.20;101158.47;5033499;28;20036;-84
2021/03/15 03:50:52;;;;;;;20.00;5.75;;;;;;;8.90;68.83;101157.53;5031784;28;20522;-85
2021/03/15 03:53:24;;;;;;;24.30;6.45;;;;;;;8.92;69.47;101166.31;5033716;28;20079;-85
2021/03/15 03:56:10;;;;;;;21.48;5.43;;;;;;;8.92;69.50;101166.31;5033986;28;20029;-84
2021/03/15 03:58:45;;;;;;;14.15;6.05;;;;;;;8.99;69.04;101175.94;5030233;28;20021;-85
2021/03/15 04:01:14;;;;;;;16.50;6.15;;;;;;;9.00;69.19;101175.06;5031288;28;20022;-84
2021/03/15 04:03:46;;;;;;;18.23;6.38;;;;;;;8.96;69.09;101167.16;5031426;28;20404;-84
2021/03/15 04:06:14;;;;;;;20.55;6.22;;;;;;;8.76;69.15;101175.25;5031451;28;20081;-84
2021/03/15 04:09:04;;;;;;;13.52;6.90;;;;;;;9.07;68.77;101176.78;5032263;28;20049;-84
2021/03/15 04:11:33;;;;;;;19.63;6.15;;;;;;;8.89;68.59;101176.91;5030946;28;20030;-85
2021/03/15 04:14:02;;;;;;;19.20;6.40;;;;;;;8.79;68.81;101175.22;5031250;28;20353;-85
2021/03/15 04:16:34;;;;;;;14.40;5.70;;;;;;;8.93;68.35;101183.91;5030920;28;20033;-85
2021/03/15 04:19:05;;;;;;;14.80;5.63;;;;;;;8.96;68.57;101190.94;5033857;28;20108;-85
2021/03/15 04:21:34;;;;;;;15.05;6.07;;;;;;;8.89;68.45;101198.06;5031107;28;20112;-85
2021/03/15 04:24:02;;;;;;;9.00;5.18;;;;;;;9.00;67.84;101195.34;5032473;28;20139;-84
2021/03/15 04:26:31;;;;;;;15.75;6.70;;;;;;;9.06;67.56;101196.16;5031490;28;20052;-84
2021/03/15 04:28:59;;;;;;;15.77;6.28;;;;;;;9.00;68.20;101209.41;5029582;28;20041;-85
2021/03/15 04:31:27;;;;;;;19.42;6.70;;;;;;;9.02;68.14;101218.22;5031519;28;20492;-85
2021/03/15 04:33:55;;;;;;;20.38;7.05;;;;;;;9.10;67.91;101211.97;5032572;28;20021;-85
2021/03/15 04:36:22;;;;;;;12.57;5.88;;;;;;;8.97;68.25;101220.03;5031924;28;20480;-85
2021/03/15 04:38:50;;;;;;;20.88;7.22;;;;;;;9.04;67.96;101216.41;5031495;28;20366;-85
2021/03/15 04:41:17;;;;;;;16.77;6.03;;;;;;;8.97;68.26;101220.03;5030655;28;20025;-86
2021/03/15 04:43:48;;;;;;;11.25;5.10;;;;;;;9.09;67.66;101220.81;5030482;28;20480;-85
2021/03/15 04:46:17;;;;;;;16.15;5.95;;;;;;;8.92;68.53;101228.88;5031205;28;20030;-84
2021/03/15 04:48:45;;;;;;;12.10;5.50;;;;;;;8.87;68.41;101236.81;5032099;28;20492;-85
2021/03/15 04:51:12;;;;;;;16.77;5.60;;;;;;;9.03;67.38;101233.19;5030023;28;20112;-84
2021/03/15 04:53:40;;;;;;;12.73;5.80;;;;;;;9.11;67.89;101230.50;5031071;28;20038;-84
2021/03/15 04:56:10;;;;;;;9.52;5.40;;;;;;;9.12;67.85;101240.19;5035359;28;20057;-84
2021/03/15 04:58:39;;;;;;;16.52;4.90;;;;;;;9.16;67.25;101235.72;5027885;28;20040;-84
2021/03/15 05:01:07;;;;;;;14.18;5.00;;;;;;;9.03;67.73;101249.06;5029068;28;20034;-85
2021/03/15 05:03:37;;;;;;;13.85;4.47;;;;;;;8.97;67.89;101245.56;5029732;28;20067;-84
2021/03/15 05:06:06;;;;;;;12.80;4.22;;;;;;;8.97;67.56;101251.75;5051666;28;20491;-84
2021/03/15 05:08:36;;;;;;;11.20;3.88;;;;;;;9.07;67.46;101245.50;5031018;28;20025;-85
2021/03/15 05:11:03;;;;;;;9.75;3.88;;;;;;;8.84;68.23;101263.28;5030609;28;20031;-85
2021/03/15 05:13:32;;;;;;;10.07;4.03;;;;;;;8.72;67.71;101254.53;5029667;28;20209;-85
2021/03/15 05:15:59;;;;;;;10.23;3.58;;;;;;;8.86;67.73;101257.09;5034283;28;20091;-84
2021/03/15 05:18:28;;;;;;;13.32;3.08;;;;;;;9.04;67.31;101265.78;5029823;28;20395;-84
2021/03/15 05:20:55;;;;;;;11.48;3.42;;;;;;;9.03;66.81;101272.84;5031205;28;20076;-85
2021/03/15 05:23:22;;;;;;;14.23;2.85;;;;;;;9.03;66.78;101272.84;5027823;28;20037;-85
2021/03/15 05:25:51;;;;;;;8.85;2.80;;;;;;;8.93;67.47;101271.13;5031345;28;20044;-85
2021/03/15 05:28:19;;;;;;;8.27;2.75;;;;;;;8.87;66.90;101264.13;5029407;28;20087;-85
2021/03/15 05:30:48;;;;;;;19.67;4.50;;;;;;;8.90;66.79;101268.53;5029384;28;20144;-85
2021/03/15 05:33:18;;;;;;;10.07;2.70;;;;;;;8.94;66.96;101269.38;5027603;28;20043;-85
2021/03/15 05:35:46;;;;;;;12.45;3.97;;;;;;;8.95;66.65;101272.00;5029390;28;20053;-86
2021/03/15 05:38:12;;;;;;;19.65;3.92;;;;;;;8.79;66.72;101268.56;5024745;28;20030;-86
2021/03/15 05:40:41;;;;;;;13.35;3.03;;;;;;;8.90;66.14;101268.53;5031655;28;20056;-85
2021/03/15 05:43:33;;;;;;;19.33;3.28;;;;;;;8.95;66.48;101279.94;5027258;28;20393;-85
2021/03/15 06:05:59;;;;;;;20.70;3.00;;;;;;;8.79;66.40;101292.34;5056368;28;20486;-84
2021/03/15 06:08:35;;;;;;;16.75;3.92;;;;;;;8.60;67.31;101288.94;5046623;28;20033;-85
2021/03/15 06:13:45;;;;;;;20.65;3.10;;;;;;;8.70;66.64;101303.84;5110930;27;20366;-84
2021/03/15 06:16:12;;;;;;;22.00;3.35;;;;;;;8.66;67.12;101306.50;5080011;28;20041;-84
2021/03/15 06:18:40;;;;;;;15.88;3.35;;;;;;;8.48;68.01;101307.47;5080176;28;20066;-85
2021/03/15 06:21:10;;;;;;;16.77;3.05;;;;;;;8.63;67.66;101325.03;5083798;28;20032;-86
2021/03/15 06:23:38;;;;;;;16.50;3.22;;;;;;;8.65;67.36;101324.13;5079428;28;20028;-85
2021/03/15 06:26:07;;;;;;;19.13;2.92;;;;;;;8.55;67.45;101319.78;5087181;28;20396;-85
2021/03/15 06:28:33;;;;;;;14.75;2.80;;;;;;;8.53;67.78;101330.31;5086613;28;20139;-85
2021/03/15 06:31:00;;;;;;;19.77;3.35;;;;;;;8.48;67.36;101328.59;5081659;28;20487;-86
2021/03/15 06:33:28;;;;;;;16.30;3.17;;;;;;;8.43;67.80;101336.50;5082863;28;20052;-85
2021/03/15 06:36:03;;;;;;;18.23;3.97;;;;;;;8.37;68.48;101341.78;5085476;28;20030;-86
2021/03/15 06:38:32;;;;;;;11.50;3.15;;;;;;;8.45;68.18;101333.84;5086596;28;20090;-84
2021/03/15 06:41:00;;;;;;;13.43;2.67;;;;;;;8.38;68.02;101333.84;5080529;28;20471;-85
2021/03/15 06:43:27;;;;;;;18.38;3.65;;;;;;;8.37;68.45;101347.97;5081847;28;20367;-84
2021/03/15 06:45:55;;;;;;;16.75;2.83;;;;;;;8.36;68.75;101350.59;5082212;28;20081;-85
2021/03/15 06:48:22;;;;;;;16.00;3.13;;;;;;;8.41;67.90;101355.00;5080061;28;20029;-85
2021/03/15 06:50:49;;;;;;;28.33;3.70;;;;;;;8.36;68.95;101367.34;5081435;28;20036;-83
2021/03/15 06:53:16;;;;;;;17.63;3.15;;;;;;;8.57;68.48;101370.81;5084775;28;20047;-85
2021/03/15 07:04:03;;;;;;;17.58;2.92;;;;;;;8.83;68.14;101383.91;5061048;28;20384;-84
2021/03/15 07:06:39;;;;;;;14.60;2.97;;;;;;;8.88;67.90;101379.53;5046586;28;20100;-87
2021/03/15 07:09:11;;;;;;;23.98;3.67;;;;;;;8.83;68.00;101385.69;5049429;28;20063;-87
2021/03/15 07:11:37;;;;;;;22.17;3.53;;;;;;;9.00;67.54;101399.72;5046854;28;20416;-88
2021/03/15 07:14:04;;;;;;;25.10;3.90;;;;;;;8.92;67.84;101401.50;5048727;28;20106;-89
2021/03/15 07:16:32;;;;;;;22.27;3.42;;;;;;;9.02;67.15;101400.59;5046980;28;20029;-87
2021/03/15 07:19:03;;;;;;;35.50;4.25;;;;;;;8.89;67.10;101410.31;5047356;28;20029;-87
2021/03/15 07:21:32;;;;;;;19.00;3.05;;;;;;;9.04;66.90;101404.09;5046458;28;20025;-87
2021/03/15 07:23:59;;;;;;;29.42;3.40;;;;;;;8.88;67.29;101418.28;5047055;28;20112;-87
2021/03/15 07:26:28;;;;;;;22.33;3.55;;;;;;;8.80;66.69;101420.03;5045852;28;20079;-87
2021/03/15 07:28:54;;;;;;;20.90;3.40;;;;;;;8.84;66.77;101406.81;5046646;28;20040;-89
2021/03/15 07:36:59;;;;;;;19.98;3.70;;;;;;;9.14;66.73;101420.78;5071250;27;20421;-91
2021/03/15 07:39:28;;;;;;;28.90;3.35;;;;;;;9.09;65.64;101421.72;5050712;28;20841;-89
2021/03/15 07:41:56;;;;;;;13.93;2.42;;;;;;;9.26;66.22;101421.63;5049861;28;20071;-89
2021/03/15 07:44:27;;;;;;;30.85;3.67;;;;;;;9.10;65.99;101431.38;5042556;28;20026;-91
2021/03/15 07:46:58;;;;;;;20.25;3.17;;;;;;;9.06;65.63;101428.75;5029056;28;20072;-84
2021/03/15 07:49:28;;;;;;;15.32;2.70;;;;;;;9.10;65.64;101440.22;5035581;28;20120;-87
2021/03/15 07:51:57;;;;;;;21.83;4.20;;;;;;;9.12;64.57;101442.84;5034990;28;20044;-87
2021/03/15 07:54:25;;;;;;;19.27;3.60;;;;;;;9.06;65.09;101443.75;5029322;28;20026;-90
2021/03/15 07:59:58;;;;;;;16.35;2.75;;;;;;;9.03;65.06;101462.25;5079400;28;20428;-88
2021/03/15 08:02:30;;;;;;;15.98;2.95;;;;;;;9.11;63.79;101456.94;5060375;28;20448;-85
2021/03/15 08:04:58;;;;;;;25.48;2.75;;;;;;;9.30;64.13;101461.28;5064338;28;20028;-88
2021/03/15 08:07:25;;;;;;;19.48;2.85;;;;;;;9.33;63.31;101453.34;5061069;28;20025;-86
2021/03/15 08:09:55;;;;;;;17.88;2.92;;;;;;;9.47;62.86;101470.88;5067309;28;20488;-91
2021/03/15 08:12:24;;;;;;;27.35;5.05;;;;;;;9.41;62.15;101484.13;5068710;28;20550;-91
2021/03/15 08:14:58;;;;;;;13.50;1.80;;;;;;;9.35;61.04;101474.47;5084598;28;20040;-90
2021/03/15 08:17:25;;;;;;;13.93;2.10;;;;;;;9.71;60.24;101470.72;5080669;28;20029;-88
2021/03/15 08:19:52;;;;;;;10.48;2.13;;;;;;;9.80;60.67;101482.16;5080626;28;20036;-89
2021/03/15 08:22:27;;;;;;;16.50;2.60;;;;;;;9.44;61.60;101513.22;5070989;28;20049;-89
2021/03/15 08:24:57;;;;;;;12.02;2.47;;;;;;;9.21;62.17;101507.13;5062864;28;20036;-89
2021/03/15 08:27:28;;;;;;;7.63;1.85;;;;;;;8.68;64.50;101510.81;5068033;28;20102;-85
2021/03/15 08:29:58;;;;;;;12.52;2.10;;;;;;;8.77;64.03;101515.19;5068280;28;20384;-85
2021/03/15 08:32:26;;;;;;;14.85;2.40;;;;;;;8.23;66.68;101521.34;5063149;28;20025;-86
2021/03/15 08:34:53;;;;;;;5.80;1.50;;;;;;;8.12;66.91;101521.31;5063449;28;20123;-87
2021/03/15 08:37:58;;;;;;;11.05;1.70;;;;;;;8.23;66.74;101526.63;5065348;28;20029;-84
2021/03/15 08:43:25;;;;;;;12.35;2.60;;;;;;;8.37;66.74;101532.81;5036373;27;781255;-89
2021/03/15 08:45:56;;;;;;;13.73;2.28;;;;;;;8.41;66.72;101531.03;5030082;28;20026;-90
2021/03/15 08:48:45;;;;;;;14.23;2.58;;;;;;;8.51;67.23;101538.13;5027347;28;20121;-90
2021/03/15 08:53:51;;;;;;;18.27;3.25;;;;;;;8.46;67.19;101537.25;5059453;27;20437;-88
2021/03/15 08:58:58;;;;;;;17.48;2.33;;;;;;;8.69;66.66;101538.97;5069283;27;20457;-89
2021/03/15 09:01:29;;;;;;;12.88;3.38;;;;;;;8.73;66.27;101548.66;5067071;28;20483;-89
2021/03/15 09:04:04;;;;;;;18.15;2.05;;;;;;;8.92;66.18;101546.84;5068934;28;20025;-90
2021/03/15 09:09:13;;;;;;;15.00;3.08;;;;;;;9.21;65.60;101543.28;5081298;27;20710;-90
2021/03/15 09:19:53;;;;;;;19.70;4.75;;;;;;;9.63;64.17;101540.47;5064847;28;20898;-83
2021/03/15 09:22:27;;;;;;;8.68;2.25;;;;;;;9.85;63.54;101541.22;5067936;28;20029;-87
2021/03/15 09:27:42;;;;;;;10.77;2.53;;;;;;;9.74;62.56;101558.94;5081242;27;20446;-88
2021/03/15 09:35:41;;;;;;;11.63;2.28;;;;;;;9.12;63.08;101569.72;5144438;27;20409;-89
2021/03/15 09:38:09;;;;;;;16.63;2.40;;;;;;;9.53;62.39;101577.56;5141805;27;20450;-87
2021/03/15 09:43:21;;;;;;;12.15;2.25;;;;;;;9.23;62.06;101581.16;5090356;27;20489;-87
2021/03/15 09:45:53;;;;;;;;;;;;;;;9.39;60.65;101587.28;5042671;28;20067;-87
2021/03/15 09:48:21;;;;;;;9.52;2.20;;;;;;;9.59;61.80;101586.34;5040133;28;19913;-87
2021/03/15 09:50:51;;;;;;;16.15;2.45;;;;;;;9.64;61.46;101582.78;5039570;28;20037;-87
2021/03/15 09:53:18;;;;;;;7.68;2.05;;;;;;;9.68;60.37;101587.19;5043692;28;20495;-86
2021/03/15 09:55:45;;;;;;;12.82;3.28;;;;;;;9.67;59.27;101585.44;5054172;28;20034;-87
2021/03/15 09:58:14;;;;;;;13.75;1.90;;;;;;;9.76;59.92;101594.19;5039353;28;20033;-89
2021/03/15 10:00:40;;;;;;;11.43;1.90;;;;;;;9.76;59.51;101602.13;5039999;28;20033;-88
2021/03/15 10:03:07;;;;;;;13.73;1.90;;;;;;;9.19;60.22;101597.94;5037895;28;20083;-86
2021/03/15 10:05:33;;;;;;;13.40;2.47;;;;;;;9.35;60.53;101610.22;5037224;28;20033;-86
2021/03/15 10:08:00;;;;;;;9.55;1.70;;;;;;;9.52;60.49;101596.06;5029640;28;20538;-84
2021/03/15 10:10:26;;;;;;;16.52;2.38;;;;;;;9.51;60.22;101604.91;5035277;28;20474;-86
2021/03/15 10:13:03;;;;;;;15.85;2.45;;;;;;;9.64;59.63;101609.25;5040634;28;20136;-87
2021/03/15 10:15:32;;;;;;;14.98;2.97;;;;;;;9.66;59.60;101615.41;5040232;28;20038;-87
2021/03/15 10:18:04;;;;;;;8.15;2.05;;;;;;;9.80;59.66;101612.72;5039274;28;20069;-87
2021/03/15 10:20:33;;;;;;;6.82;1.95;;;;;;;10.18;58.76;101598.41;5037132;28;20032;-87
2021/03/15 10:23:10;;;;;;;14.63;3.08;;;;;;;10.32;58.04;101616.84;5039491;28;20025;-87
2021/03/15 10:25:37;;;;;;;8.73;1.92;;;;;;;10.18;56.51;101616.03;5038920;28;20702;-88
2021/03/15 10:28:03;;;;;;;11.75;2.20;;;;;;;10.10;57.14;101615.22;5035118;28;20393;-83
2021/03/15 10:30:32;;;;;;;8.88;1.92;;;;;;;10.11;55.48;101638.19;5038977;28;20024;-84
2021/03/15 10:32:59;;;;;;;11.75;2.10;;;;;;;10.36;55.95;101608.00;5037088;28;20033;-87
2021/03/15 10:35:28;;;;;;;11.82;2.35;;;;;;;10.53;56.41;101620.28;5035480;28;20042;-86
2021/03/15 10:37:57;;;;;;;12.52;4.78;;;;;;;10.68;55.56;101614.84;5043036;28;20482;-86
2021/03/15 10:40:24;;;;;;;16.63;3.95;;;;;;;10.56;53.96;101622.03;5043651;28;20412;-86
2021/03/15 10:42:51;;;;;;;14.90;2.13;;;;;;;10.48;52.84;101627.34;5038346;28;20052;-87
2021/03/15 10:45:18;;;;;;;16.00;3.53;;;;;;;10.46;52.88;101631.81;5041297;28;20468;-87
2021/03/15 10:47:49;;;;;;;16.52;2.95;;;;;;;10.46;51.29;101629.16;5036611;28;20033;-84
2021/03/15 10:50:24;;;;;;;13.15;1.85;;;;;;;10.41;51.24;101630.97;5040710;28;20036;-86
2021/03/15 10:52:51;;;;;;;15.85;1.50;;;;;;;10.61;50.94;101628.16;5036701;28;20045;-88
2021/03/15 10:55:20;;;;;;;17.50;1.80;;;;;;;10.95;50.91;101628.78;5023977;28;20068;-87
2021/03/15 10:58:08;;;;;;;10.68;1.95;;;;;;;10.96;51.31;101630.50;5024796;28;20101;-86
2021/03/15 11:00:40;;;;;;;7.72;1.40;;;;;;;11.03;51.12;101646.38;5029019;28;20055;-88
2021/03/15 11:03:08;;;;;;;13.82;2.03;;;;;;;10.76;50.97;101636.00;5028714;28;20030;-87
2021/03/15 11:05:35;;;;;;;11.05;1.75;;;;;;;10.96;51.30;101640.25;5027771;28;20482;-88
2021/03/15 11:08:01;;;;;;;12.02;1.80;;;;;;;10.87;51.78;101641.22;5024062;28;20030;-87
2021/03/15 11:10:31;;;;;;;12.30;2.22;;;;;;;10.87;50.88;101646.50;5024878;28;20443;-87
2021/03/15 11:13:14;;;;;;;11.40;2.53;;;;;;;10.91;51.14;101648.25;5024868;28;20053;-89
2021/03/15 11:15:40;;;;;;;13.38;2.60;;;;;;;10.86;50.31;101650.06;5026374;28;20038;-85
2021/03/15 11:20:53;;;;;;;11.82;2.58;;;;;;;11.07;51.20;101648.13;5079922;27;20424;-86
2021/03/15 11:23:37;;;;;;;12.98;2.58;;;;;;;11.24;50.24;101659.44;5064020;28;20037;-86
2021/03/15 11:28:51;;;;;;;9.07;1.67;;;;;;;11.36;50.62;101666.38;5080135;27;20416;-85
2021/03/15 11:31:20;;;;;;;11.82;2.35;;;;;;;10.97;50.98;101658.78;5067735;28;20024;-87
2021/03/15 11:34:02;;;;;;;13.55;1.75;;;;;;;11.52;50.69;101674.22;5068850;28;20409;-85
2021/03/15 11:36:33;;;;;;;11.07;1.67;;;;;;;11.41;50.84;101669.88;5049899;28;20048;-84
2021/03/15 11:39:03;;;;;;;9.48;1.83;;;;;;;11.42;51.28;101676.94;5048987;28;20043;-86
2021/03/15 11:41:32;;;;;;;11.63;2.05;;;;;;;11.59;51.21;101683.84;5050679;28;20029;-85
2021/03/15 11:44:00;;;;;;;15.07;2.35;;;;;;;11.07;50.97;101669.34;5047381;28;20029;-85
2021/03/15 11:46:27;;;;;;;13.27;1.65;;;;;;;11.24;50.56;101683.31;5049452;28;20033;-84
2021/03/15 11:48:53;;;;;;;10.15;1.77;;;;;;;10.97;51.03;101685.31;5049555;28;20421;-85
2021/03/15 11:51:19;;;;;;;11.38;1.60;;;;;;;11.12;51.10;101689.59;5049499;28;20021;-84
2021/03/15 11:53:49;;;;;;;9.48;1.95;;;;;;;11.16;51.93;101686.06;5049816;28;20030;-84
2021/03/15 11:56:16;;;;;;;14.75;2.50;;;;;;;11.31;51.12;101685.03;5049379;28;20138;-84
2021/03/15 11:58:43;;;;;;;15.20;2.83;;;;;;;11.78;50.70;101684.53;5047987;28;20117;-82
2021/03/15 12:01:10;;;;;;;14.80;2.22;;;;;;;11.42;50.16;101684.03;5048055;28;20038;-83
2021/03/15 12:03:36;;;;;;;9.00;2.13;;;;;;;11.45;51.42;101692.84;5042554;28;20030;-83
2021/03/15 12:06:03;;;;;;;15.43;2.65;;;;;;;11.46;51.28;101699.03;5050068;28;20485;-84
2021/03/15 12:08:30;;;;;;;15.95;3.95;;;;;;;11.57;51.35;101697.13;5045689;28;20033;-85
2021/03/15 12:10:57;;;;;;;14.63;3.03;;;;;;;11.60;51.97;101689.16;5042693;28;20076;-84
2021/03/15 12:13:25;;;;;;;16.77;2.35;;;;;;;11.57;52.32;101702.44;5055414;28;20033;-85
2021/03/15 12:15:51;;;;;;;19.65;2.58;;;;;;;11.69;51.48;101700.56;5048640;28;20029;-85
2021/03/15 12:18:18;;;;;;;15.73;1.90;;;;;;;11.63;51.66;101701.50;5051442;28;20029;-84
2021/03/15 12:20:44;;;;;;;11.23;2.80;;;;;;;11.58;50.61;101688.28;5045606;28;20033;-84
2021/03/15 12:23:11;;;;;;;9.52;2.05;;;;;;;11.72;50.47;101698.75;5046536;28;20469;-85
2021/03/15 12:25:40;;;;;;;11.55;2.13;;;;;;;11.78;49.49;101689.84;5047586;28;20029;-82
2021/03/15 12:28:07;;;;;;;12.77;2.88;;;;;;;11.93;49.92;101694.97;5049174;28;20585;-83
2021/03/15 12:30:36;;;;;;;16.70;2.50;;;;;;;11.85;49.85;101717.19;5049435;28;20037;-83
2021/03/15 12:33:03;;;;;;;12.88;1.67;;;;;;;11.55;48.96;101704.25;5049544;28;20112;-83
2021/03/15 12:35:29;;;;;;;15.38;2.88;;;;;;;11.82;49.25;101708.38;5049516;28;20035;-83
2021/03/15 12:37:55;;;;;;;10.18;2.63;;;;;;;12.03;49.61;101711.69;5048943;28;20033;-82
2021/03/15 12:40:22;;;;;;;11.07;1.98;;;;;;;11.74;49.31;101714.66;5035941;28;20435;-83
2021/03/15 12:42:49;;;;;;;8.45;1.95;;;;;;;11.63;50.36;101718.31;5035774;28;20053;-83
2021/03/15 12:45:16;;;;;;;13.75;1.95;;;;;;;11.34;50.86;101718.59;5036155;28;20096;-83
2021/03/15 12:47:42;;;;;;;15.13;2.72;;;;;;;11.43;50.89;101717.66;5035708;28;20040;-83
2021/03/15 12:50:09;;;;;;;11.90;2.47;;;;;;;11.64;50.46;101724.50;5037823;28;20037;-83
2021/03/15 12:52:36;;;;;;;14.35;2.72;;;;;;;11.55;50.56;101720.19;5035998;28;20021;-81
2021/03/15 12:55:02;;;;;;;10.40;2.15;;;;;;;11.37;50.92;101723.88;5035325;28;20021;-81
2021/03/15 12:57:28;;;;;;;14.85;2.45;;;;;;;11.29;51.12;101729.25;5034029;28;20353;-81
2021/03/15 12:59:54;;;;;;;18.13;2.75;;;;;;;11.54;50.79;101722.81;5029059;28;20409;-81
2021/03/15 13:02:21;;;;;;;11.93;2.42;;;;;;;11.31;51.64;101738.09;5034060;28;20497;-82